メインページ
METAR-TAF:

METAR-TAF

空港 :

ブリスベン空港

ブリスベン, オーストラリア

緯度: 27-23S, 経度: 153-06E, 海抜: 4m

現時点の気象観測

当レポートは32分前の13:00(UTC)に作成
無風
気温 13°C
湿度 77%
気圧 1010 hPa
視程10km以上
1,500メートル以下は雲なし、積乱雲なし

METAR: YBBN 121300Z 00000KT CAVOK 13/09 Q1010

時間: 23:32 (13:32 UTC)

予報

当レポートは2時間18分前の11:14(UTC)に作成
予報は12日の 12時(UTC)から 13日の 18時(UTC)まで有効
変向風 4kt
視程10km以上
1,500メートル以下は雲なし、積乱雲なし
12日の 1600時(UTC)から
西の風 7kt
視程10km以上
1,500メートル以下は雲なし、積乱雲なし
13日の 0000時(UTC)から
西の風 15kt、最大25ktの突風を伴う
視程10km以上
1,500メートル以下は雲なし、積乱雲なし
13日の 0700時(UTC)から
西の風 10kt
視程10km以上
1,500メートル以下は雲なし、積乱雲なし

TAF: YBBN 121114Z 1212/1318 VRB04KT CAVOK FM121600 26007KT CAVOK FM130000 26015G25KT CAVOK FM130700 26010KT CAVOK

4,000以上の空港の気象観測と天気予報(METAR報とTAF報)

利用可能な観測所は地図上に黄色い丸と赤い丸で示す。

丸の上にカーソルを重ねると観測所名を参照できる。

次にクリックすると気象観測と天気予報を参照できる。

マップの切り替え:黒色「×」印の緑ボタンをクリックして拡大、「-」印の緑ボタンをクリックして縮小、緑色の三角印をクリックして隣りの地図に切り替え


METAR-TAF: